createdAt,value
2019-03-22T00:04:23.670Z,21.60
2019-03-22T00:09:31.015Z,29.10
2019-03-22T00:14:38.440Z,31.50
2019-03-22T00:19:45.783Z,34.33
2019-03-22T00:24:53.230Z,28.55
2019-03-22T00:30:00.598Z,32.00
2019-03-22T00:35:08.577Z,36.77
2019-03-22T00:40:17.464Z,30.40
2019-03-22T00:45:24.851Z,25.23
2019-03-22T00:50:32.213Z,21.95
2019-03-22T00:55:39.404Z,23.32
2019-03-22T01:00:46.739Z,24.10
2019-03-22T01:05:54.167Z,24.05
2019-03-22T01:11:01.527Z,24.15
2019-03-22T01:16:08.866Z,29.10
2019-03-22T01:21:16.128Z,28.38
2019-03-22T01:26:23.453Z,31.17
2019-03-22T01:31:30.768Z,30.75
2019-03-22T01:36:38.185Z,28.85
2019-03-22T01:41:45.753Z,29.27
2019-03-22T01:46:53.180Z,27.20
2019-03-22T01:52:00.601Z,26.90
2019-03-22T01:57:07.958Z,25.32
2019-03-22T02:02:15.236Z,33.42
2019-03-22T02:07:22.675Z,23.80
2019-03-22T02:12:30.199Z,30.95
2019-03-22T02:17:37.618Z,29.42
2019-03-22T02:22:45.243Z,33.48
2019-03-22T02:28:03.517Z,33.10
2019-03-22T02:33:01.757Z,32.95
2019-03-22T02:38:09.118Z,33.73
2019-03-22T02:43:16.409Z,31.62
2019-03-22T02:48:23.841Z,27.90
2019-03-22T02:53:31.114Z,30.92
2019-03-22T02:58:38.550Z,27.52
2019-03-22T03:03:45.898Z,26.45
2019-03-22T03:08:53.095Z,24.32
2019-03-22T03:14:00.379Z,46.68
2019-03-22T03:19:07.769Z,41.83
2019-03-22T03:24:15.191Z,35.58
2019-03-22T03:29:22.453Z,33.67
2019-03-22T03:34:29.850Z,29.98
2019-03-22T03:39:37.199Z,29.05
2019-03-22T03:44:44.612Z,26.10
2019-03-22T03:49:51.965Z,38.48
2019-03-22T03:54:59.387Z,30.80
2019-03-22T04:00:08.975Z,30.15
2019-03-22T04:05:16.493Z,26.45
2019-03-22T04:10:23.976Z,23.45
2019-03-22T04:15:31.399Z,24.30
2019-03-22T04:20:38.807Z,22.62
2019-03-22T04:25:46.246Z,21.40
2019-03-22T04:30:53.647Z,24.07
2019-03-22T04:36:01.979Z,24.60
2019-03-22T04:41:09.766Z,22.87
2019-03-22T04:46:18.664Z,25.05
2019-03-22T04:51:26.472Z,26.42
2019-03-22T04:56:37.818Z,22.60
2019-03-22T05:01:49.696Z,20.62
2019-03-22T05:06:59.304Z,21.97
2019-03-22T05:12:08.888Z,24.23
2019-03-22T05:17:17.015Z,29.18
2019-03-22T05:22:28.437Z,25.02
2019-03-22T05:27:40.162Z,28.55
2019-03-22T05:32:47.388Z,24.80
2019-03-22T05:37:54.656Z,33.83
2019-03-22T05:43:01.923Z,28.55
2019-03-22T05:48:09.490Z,27.17
2019-03-22T05:53:16.935Z,30.62
2019-03-22T05:58:25.671Z,27.52
2019-03-22T06:03:32.868Z,30.62
2019-03-22T06:08:40.232Z,30.50
2019-03-22T06:13:48.416Z,40.50
2019-03-22T06:18:55.965Z,31.70
2019-03-22T06:24:03.389Z,40.23
2019-03-22T06:29:10.877Z,36.70
2019-03-22T06:34:18.183Z,37.70
2019-03-22T06:39:25.538Z,30.20
2019-03-22T06:44:32.970Z,37.23
2019-03-22T06:49:40.237Z,35.45
2019-03-22T06:54:47.512Z,35.90
2019-03-22T07:00:05.885Z,39.95
2019-03-22T07:05:03.964Z,34.55
2019-03-22T07:10:13.002Z,29.23
2019-03-22T07:15:20.514Z,31.52
2019-03-22T07:20:27.931Z,34.18
2019-03-22T07:25:35.481Z,32.03
2019-03-22T07:30:42.909Z,30.10
2019-03-22T07:35:50.367Z,31.42
2019-03-22T07:40:57.719Z,25.08
2019-03-22T07:46:05.152Z,28.90
2019-03-22T07:51:12.499Z,25.05
2019-03-22T07:56:19.864Z,23.50
2019-03-22T08:01:27.300Z,22.25
2019-03-22T08:06:34.586Z,22.37
2019-03-22T08:11:42.514Z,24.50
2019-03-22T08:16:50.943Z,21.60
2019-03-22T08:21:58.432Z,23.80
2019-03-22T08:27:05.856Z,22.85
2019-03-22T08:32:13.563Z,23.07
2019-03-22T08:37:20.849Z,23.87
2019-03-22T08:42:28.134Z,25.60
2019-03-22T08:47:35.405Z,29.42
2019-03-22T08:52:42.873Z,34.53
2019-03-22T08:57:50.297Z,27.55
2019-03-22T09:02:57.639Z,28.02
2019-03-22T09:08:05.101Z,29.65
2019-03-22T09:13:12.534Z,32.63
2019-03-22T09:18:19.808Z,32.73
2019-03-22T09:23:27.188Z,31.35
2019-03-22T09:28:34.576Z,30.88
2019-03-22T09:33:42.115Z,36.70
2019-03-22T09:38:49.566Z,35.78
2019-03-22T09:43:56.986Z,39.15
2019-03-22T09:49:04.579Z,37.42
2019-03-22T09:54:12.150Z,35.50
2019-03-22T09:59:19.580Z,42.33
2019-03-22T10:04:27.038Z,39.58
2019-03-22T10:09:34.267Z,36.73
2019-03-22T10:14:41.733Z,31.27
2019-03-22T10:19:49.112Z,41.63
2019-03-22T10:24:56.525Z,30.32
2019-03-22T10:30:04.197Z,36.38
2019-03-22T10:35:25.393Z,38.83
2019-03-22T10:40:21.962Z,39.80
2019-03-22T10:45:29.504Z,39.42
2019-03-22T10:50:36.999Z,38.30
2019-03-22T10:55:44.415Z,37.08
2019-03-22T11:00:51.861Z,41.60
2019-03-22T11:05:59.314Z,41.13
2019-03-22T11:11:06.832Z,41.18
2019-03-22T11:16:14.278Z,41.50
2019-03-22T11:21:23.650Z,36.10
2019-03-22T11:26:31.132Z,35.52
2019-03-22T11:31:40.117Z,36.63
2019-03-22T11:36:47.953Z,37.83
2019-03-22T11:41:55.336Z,37.10
2019-03-22T11:47:02.796Z,37.83
2019-03-22T11:52:10.165Z,33.00
2019-03-22T11:57:17.629Z,33.58
2019-03-22T12:02:25.261Z,29.63
2019-03-22T12:07:32.577Z,30.57
2019-03-22T12:12:40.162Z,28.87
2019-03-22T12:17:47.719Z,27.58
2019-03-22T12:22:55.270Z,26.65
2019-03-22T12:28:02.746Z,25.37
2019-03-22T12:33:10.240Z,28.50
2019-03-22T12:38:18.934Z,21.77
2019-03-22T12:43:26.342Z,23.20
2019-03-22T12:48:33.637Z,20.88
2019-03-22T12:53:46.204Z,16.32
2019-03-22T12:58:53.881Z,15.40
2019-03-22T13:04:01.318Z,16.70
2019-03-22T13:09:10.898Z,13.95
2019-03-22T13:14:18.380Z,11.63
2019-03-22T13:19:25.782Z,13.72
2019-03-22T13:24:33.327Z,15.13
2019-03-22T13:29:40.773Z,11.68
2019-03-22T13:34:48.323Z,13.70
2019-03-22T13:39:55.767Z,10.38
2019-03-22T13:45:03.320Z,15.85
2019-03-22T13:50:12.227Z,20.70
2019-03-22T13:55:19.626Z,20.50
2019-03-22T14:00:27.281Z,20.50
2019-03-22T14:05:34.841Z,22.27
2019-03-22T14:10:42.202Z,30.45
2019-03-22T14:15:49.646Z,30.02
2019-03-22T14:20:57.192Z,31.42
2019-03-22T14:26:04.774Z,32.03
2019-03-22T14:31:12.185Z,27.62
2019-03-22T14:36:19.700Z,30.57
2019-03-22T14:41:26.998Z,32.53
2019-03-22T14:46:34.289Z,32.05
2019-03-22T14:51:41.568Z,33.25
2019-03-22T14:56:48.933Z,32.45
2019-03-22T15:01:56.229Z,34.15
2019-03-22T15:07:03.617Z,32.35
2019-03-22T15:12:11.043Z,35.28
2019-03-22T15:17:42.119Z,37.95
2019-03-22T15:23:07.183Z,32.10
2019-03-22T15:28:37.967Z,34.38
2019-03-22T15:34:13.229Z,29.92
2019-03-22T15:39:59.011Z,33.38
2019-03-22T15:45:08.628Z,33.83
2019-03-22T15:50:17.481Z,33.10
2019-03-22T15:55:24.892Z,34.88
2019-03-22T16:00:32.258Z,33.85
2019-03-22T16:05:39.726Z,32.88
2019-03-22T16:10:47.192Z,36.95
2019-03-22T16:15:54.719Z,35.17
2019-03-22T16:21:02.100Z,34.53
2019-03-22T16:26:09.956Z,35.43
2019-03-22T16:31:18.443Z,38.00
2019-03-22T16:36:25.931Z,33.63
2019-03-22T16:41:33.404Z,37.00
2019-03-22T16:46:40.718Z,38.10
2019-03-22T16:51:48.107Z,38.05
2019-03-22T16:56:55.546Z,37.55
2019-03-22T17:02:02.960Z,42.13
2019-03-22T17:07:10.317Z,47.85
2019-03-22T17:12:20.795Z,40.65
2019-03-22T17:17:29.883Z,43.80
2019-03-22T17:22:37.275Z,45.92
2019-03-22T17:27:44.742Z,47.93
2019-03-22T17:32:52.203Z,45.50
2019-03-22T17:37:59.646Z,48.05
2019-03-22T17:43:07.260Z,47.75
2019-03-22T17:48:14.735Z,50.12
2019-03-22T17:53:22.022Z,52.15
2019-03-22T17:58:29.265Z,54.27
2019-03-22T18:03:36.567Z,51.63
2019-03-22T18:08:44.037Z,47.93
2019-03-22T18:13:51.331Z,48.92
2019-03-22T18:18:58.773Z,55.58
2019-03-22T18:24:06.395Z,46.20
2019-03-22T18:29:13.769Z,49.80
2019-03-22T18:34:21.174Z,48.02
2019-03-22T18:39:28.580Z,49.50
2019-03-22T18:44:36.044Z,47.08
2019-03-22T18:49:43.404Z,46.83
2019-03-22T18:54:50.888Z,48.08
2019-03-22T18:59:58.348Z,50.83
2019-03-22T19:05:07.276Z,47.25
2019-03-22T19:10:15.009Z,54.15
2019-03-22T19:15:22.345Z,54.73
2019-03-22T19:20:30.763Z,51.00
2019-03-22T19:25:38.037Z,48.00
2019-03-22T19:30:45.425Z,44.93
2019-03-22T19:35:52.749Z,48.13
2019-03-22T19:41:00.133Z,48.10
2019-03-22T19:46:07.809Z,43.80
2019-03-22T19:51:16.409Z,39.03
2019-03-22T19:56:24.151Z,34.03
2019-03-22T20:01:31.493Z,29.95
2019-03-22T20:06:38.796Z,26.85
2019-03-22T20:11:46.168Z,24.92
2019-03-22T20:16:53.604Z,22.85
2019-03-22T20:22:01.854Z,18.70
2019-03-22T20:27:09.388Z,21.17
2019-03-22T20:32:16.942Z,19.50
2019-03-22T20:37:24.297Z,19.37
2019-03-22T20:42:31.583Z,18.10
2019-03-22T20:47:38.914Z,22.17
2019-03-22T20:52:46.279Z,18.45
2019-03-22T20:57:53.690Z,22.70
2019-03-22T21:03:01.118Z,19.82
2019-03-22T21:08:08.679Z,21.52
2019-03-22T21:13:16.242Z,20.55
2019-03-22T21:18:23.497Z,23.22
2019-03-22T21:23:36.269Z,23.05
2019-03-22T21:28:39.920Z,20.75
2019-03-22T21:33:47.213Z,21.40
2019-03-22T21:38:54.630Z,26.20
2019-03-22T21:44:02.041Z,22.42
2019-03-22T21:49:09.651Z,22.62
2019-03-22T21:54:17.305Z,25.52
2019-03-22T21:59:24.582Z,24.32
2019-03-22T22:04:31.851Z,27.07
2019-03-22T22:09:39.283Z,27.13
2019-03-22T22:14:46.635Z,28.62
2019-03-22T22:19:53.977Z,32.33
2019-03-22T22:25:01.406Z,28.07
2019-03-22T22:30:10.264Z,28.12
2019-03-22T22:35:18.866Z,25.25
2019-03-22T22:40:26.205Z,29.60
2019-03-22T22:45:33.624Z,28.32
2019-03-22T22:50:40.980Z,26.90
2019-03-22T22:55:48.271Z,24.57
2019-03-22T23:00:55.775Z,22.40
2019-03-22T23:06:09.312Z,24.20
2019-03-22T23:11:13.829Z,26.62
2019-03-22T23:16:21.187Z,23.85
2019-03-22T23:21:28.539Z,25.60
2019-03-22T23:26:35.876Z,26.55
2019-03-22T23:31:43.259Z,23.65
2019-03-22T23:36:51.687Z,23.32
2019-03-22T23:41:59.031Z,27.17
2019-03-22T23:47:06.446Z,24.60
2019-03-22T23:52:13.862Z,27.17
2019-03-22T23:57:21.280Z,25.15
